sensor_id;sensor_type;location;lat;lon;timestamp;temperature;humidity
41985;DHT22;28319;48.116;10.818;2024-03-23T00:54:14;10.60;56.00
41985;DHT22;28319;48.116;10.818;2024-03-23T00:59:16;10.60;56.40
41985;DHT22;28319;48.116;10.818;2024-03-23T01:04:18;10.50;56.30
41985;DHT22;28319;48.116;10.818;2024-03-23T01:09:22;10.50;56.30
41985;DHT22;28319;48.116;10.818;2024-03-23T01:14:24;10.50;56.50
41985;DHT22;28319;48.116;10.818;2024-03-23T01:19:26;10.40;56.70
41985;DHT22;28319;48.116;10.818;2024-03-23T01:24:29;10.30;57.00
41985;DHT22;28319;48.116;10.818;2024-03-23T01:29:31;10.40;57.00
41985;DHT22;28319;48.116;10.818;2024-03-23T01:34:33;10.30;57.00
41985;DHT22;28319;48.116;10.818;2024-03-23T01:39:36;10.30;57.10
41985;DHT22;28319;48.116;10.818;2024-03-23T01:44:38;10.20;57.30
41985;DHT22;28319;48.116;10.818;2024-03-23T01:49:40;10.10;57.70
41985;DHT22;28319;48.116;10.818;2024-03-23T01:54:44;10.10;58.10
41985;DHT22;28319;48.116;10.818;2024-03-23T01:59:46;10.00;58.20
41985;DHT22;28319;48.116;10.818;2024-03-23T02:04:48;9.90;58.50
41985;DHT22;28319;48.116;10.818;2024-03-23T02:09:52;10.00;58.50
41985;DHT22;28319;48.116;10.818;2024-03-23T02:14:54;9.90;58.80
41985;DHT22;28319;48.116;10.818;2024-03-23T02:19:56;9.80;59.00
41985;DHT22;28319;48.116;10.818;2024-03-23T02:24:59;9.80;59.50
41985;DHT22;28319;48.116;10.818;2024-03-23T02:30:04;10.00;59.60
41985;DHT22;28319;48.116;10.818;2024-03-23T02:35:06;9.70;59.60
41985;DHT22;28319;48.116;10.818;2024-03-23T02:40:10;9.70;59.60
41985;DHT22;28319;48.116;10.818;2024-03-23T02:45:12;9.70;59.90
41985;DHT22;28319;48.116;10.818;2024-03-23T02:50:14;9.60;60.20
41985;DHT22;28319;48.116;10.818;2024-03-23T02:55:17;9.60;59.80
41985;DHT22;28319;48.116;10.818;2024-03-23T03:00:19;9.70;59.70
41985;DHT22;28319;48.116;10.818;2024-03-23T03:05:21;9.70;59.40
41985;DHT22;28319;48.116;10.818;2024-03-23T03:10:25;9.70;59.20
41985;DHT22;28319;48.116;10.818;2024-03-23T03:15:27;9.70;59.40
41985;DHT22;28319;48.116;10.818;2024-03-23T03:20:29;9.60;59.90
41985;DHT22;28319;48.116;10.818;2024-03-23T03:25:34;9.60;60.00
41985;DHT22;28319;48.116;10.818;2024-03-23T03:30:36;9.60;60.10
41985;DHT22;28319;48.116;10.818;2024-03-23T03:35:38;9.50;60.10
41985;DHT22;28319;48.116;10.818;2024-03-23T03:40:43;9.70;60.00
41985;DHT22;28319;48.116;10.818;2024-03-23T03:45:51;9.50;60.20
41985;DHT22;28319;48.116;10.818;2024-03-23T03:50:54;9.90;59.20
41985;DHT22;28319;48.116;10.818;2024-03-23T03:56:00;10.10;58.30
41985;DHT22;28319;48.116;10.818;2024-03-23T04:01:02;10.20;58.40
41985;DHT22;28319;48.116;10.818;2024-03-23T04:06:04;10.30;58.70
41985;DHT22;28319;48.116;10.818;2024-03-23T04:11:07;10.20;58.50
41985;DHT22;28319;48.116;10.818;2024-03-23T04:16:09;10.10;59.20
41985;DHT22;28319;48.116;10.818;2024-03-23T04:21:11;10.10;59.90
41985;DHT22;28319;48.116;10.818;2024-03-23T04:26:15;10.00;59.90
41985;DHT22;28319;48.116;10.818;2024-03-23T04:31:19;10.40;59.30
41985;DHT22;28319;48.116;10.818;2024-03-23T04:36:21;10.30;57.60
41985;DHT22;28319;48.116;10.818;2024-03-23T04:41:24;10.30;57.80
41985;DHT22;28319;48.116;10.818;2024-03-23T04:46:26;10.40;57.30
41985;DHT22;28319;48.116;10.818;2024-03-23T04:51:35;10.40;57.50
41985;DHT22;28319;48.116;10.818;2024-03-23T04:56:39;10.30;57.80
41985;DHT22;28319;48.116;10.818;2024-03-23T05:01:41;10.30;57.80
41985;DHT22;28319;48.116;10.818;2024-03-23T05:06:43;10.30;57.80
41985;DHT22;28319;48.116;10.818;2024-03-23T05:11:47;10.30;57.80
41985;DHT22;28319;48.116;10.818;2024-03-23T05:16:48;10.50;57.10
41985;DHT22;28319;48.116;10.818;2024-03-23T05:21:50;10.60;56.10
41985;DHT22;28319;48.116;10.818;2024-03-23T05:26:56;10.50;56.60
41985;DHT22;28319;48.116;10.818;2024-03-23T05:32:00;10.70;56.20
41985;DHT22;28319;48.116;10.818;2024-03-23T05:37:02;10.80;55.70
41985;DHT22;28319;48.116;10.818;2024-03-23T05:42:05;10.80;56.10
41985;DHT22;28319;48.116;10.818;2024-03-23T05:47:07;11.00;56.00
41985;DHT22;28319;48.116;10.818;2024-03-23T05:52:09;10.90;56.70
41985;DHT22;28319;48.116;10.818;2024-03-23T05:57:13;11.00;56.10
41985;DHT22;28319;48.116;10.818;2024-03-23T06:02:15;10.90;57.20
41985;DHT22;28319;48.116;10.818;2024-03-23T06:07:17;10.80;57.00
41985;DHT22;28319;48.116;10.818;2024-03-23T06:12:20;10.80;56.90
41985;DHT22;28319;48.116;10.818;2024-03-23T06:17:23;10.90;56.50
41985;DHT22;28319;48.116;10.818;2024-03-23T06:22:25;11.00;56.40
41985;DHT22;28319;48.116;10.818;2024-03-23T06:27:28;11.20;56.30
41985;DHT22;28319;48.116;10.818;2024-03-23T06:32:30;11.50;56.60
41985;DHT22;28319;48.116;10.818;2024-03-23T06:37:32;11.40;56.60
41985;DHT22;28319;48.116;10.818;2024-03-23T06:42:36;11.40;56.80
41985;DHT22;28319;48.116;10.818;2024-03-23T06:47:38;11.50;57.80
41985;DHT22;28319;48.116;10.818;2024-03-23T06:52:40;11.60;59.80
41985;DHT22;28319;48.116;10.818;2024-03-23T06:57:43;11.60;61.30
41985;DHT22;28319;48.116;10.818;2024-03-23T07:02:46;11.60;60.80
41985;DHT22;28319;48.116;10.818;2024-03-23T07:07:48;11.60;60.70
41985;DHT22;28319;48.116;10.818;2024-03-23T07:12:52;11.40;62.70
41985;DHT22;28319;48.116;10.818;2024-03-23T07:17:54;11.20;65.90
41985;DHT22;28319;48.116;10.818;2024-03-23T07:22:56;10.80;69.20
41985;DHT22;28319;48.116;10.818;2024-03-23T07:27:59;10.60;70.80
41985;DHT22;28319;48.116;10.818;2024-03-23T07:33:01;10.50;71.80
41985;DHT22;28319;48.116;10.818;2024-03-23T07:38:03;10.40;73.40
41985;DHT22;28319;48.116;10.818;2024-03-23T07:43:08;10.30;75.80
41985;DHT22;28319;48.116;10.818;2024-03-23T07:48:09;10.10;77.10
41985;DHT22;28319;48.116;10.818;2024-03-23T07:53:11;9.90;79.70
41985;DHT22;28319;48.116;10.818;2024-03-23T07:58:15;9.80;82.00
41985;DHT22;28319;48.116;10.818;2024-03-23T08:03:18;9.70;84.60
41985;DHT22;28319;48.116;10.818;2024-03-23T08:08:20;9.50;81.20
41985;DHT22;28319;48.116;10.818;2024-03-23T08:13:23;9.30;82.30
41985;DHT22;28319;48.116;10.818;2024-03-23T08:18:25;9.30;81.50
41985;DHT22;28319;48.116;10.818;2024-03-23T08:23:28;9.30;82.00
41985;DHT22;28319;48.116;10.818;2024-03-23T08:28:31;9.60;81.40
41985;DHT22;28319;48.116;10.818;2024-03-23T08:33:34;9.50;81.10
41985;DHT22;28319;48.116;10.818;2024-03-23T08:38:36;9.20;82.10
41985;DHT22;28319;48.116;10.818;2024-03-23T08:43:40;9.50;82.00
41985;DHT22;28319;48.116;10.818;2024-03-23T08:48:44;9.10;81.90
41985;DHT22;28319;48.116;10.818;2024-03-23T08:53:46;9.00;81.90
41985;DHT22;28319;48.116;10.818;2024-03-23T08:58:50;8.90;82.30
41985;DHT22;28319;48.116;10.818;2024-03-23T09:03:51;8.50;78.80
41985;DHT22;28319;48.116;10.818;2024-03-23T09:08:53;8.40;77.10
41985;DHT22;28319;48.116;10.818;2024-03-23T09:13:57;8.30;79.20
41985;DHT22;28319;48.116;10.818;2024-03-23T09:18:59;8.20;77.60
41985;DHT22;28319;48.116;10.818;2024-03-23T09:24:01;8.10;77.90
41985;DHT22;28319;48.116;10.818;2024-03-23T09:29:04;8.10;78.10
41985;DHT22;28319;48.116;10.818;2024-03-23T09:34:06;7.90;79.80
41985;DHT22;28319;48.116;10.818;2024-03-23T09:39:08;8.00;79.20
41985;DHT22;28319;48.116;10.818;2024-03-23T09:44:12;8.00;77.60
41985;DHT22;28319;48.116;10.818;2024-03-23T09:49:14;8.40;78.40
41985;DHT22;28319;48.116;10.818;2024-03-23T09:54:17;7.90;78.40
41985;DHT22;28319;48.116;10.818;2024-03-23T09:59:20;8.00;79.20
41985;DHT22;28319;48.116;10.818;2024-03-23T10:04:38;8.00;79.80
41985;DHT22;28319;48.116;10.818;2024-03-23T10:09:41;8.20;80.00
41985;DHT22;28319;48.116;10.818;2024-03-23T10:14:44;7.90;80.30
41985;DHT22;28319;48.116;10.818;2024-03-23T10:19:48;7.40;72.20
41985;DHT22;28319;48.116;10.818;2024-03-23T10:24:51;7.50;73.50
41985;DHT22;28319;48.116;10.818;2024-03-23T10:29:56;7.70;73.30
41985;DHT22;28319;48.116;10.818;2024-03-23T10:35:16;7.80;73.60
41985;DHT22;28319;48.116;10.818;2024-03-23T10:40:19;7.80;71.40
41985;DHT22;28319;48.116;10.818;2024-03-23T10:45:22;8.10;70.50
41985;DHT22;28319;48.116;10.818;2024-03-23T10:50:25;7.90;70.20
41985;DHT22;28319;48.116;10.818;2024-03-23T10:55:28;8.00;68.30
41985;DHT22;28319;48.116;10.818;2024-03-23T11:00:32;8.00;68.20
41985;DHT22;28319;48.116;10.818;2024-03-23T11:05:35;7.90;66.70
41985;DHT22;28319;48.116;10.818;2024-03-23T11:10:37;8.20;66.90
41985;DHT22;28319;48.116;10.818;2024-03-23T11:15:40;8.30;64.70
41985;DHT22;28319;48.116;10.818;2024-03-23T11:20:42;8.60;66.90
41985;DHT22;28319;48.116;10.818;2024-03-23T11:25:44;8.50;64.00
41985;DHT22;28319;48.116;10.818;2024-03-23T11:30:47;8.50;61.10
41985;DHT22;28319;48.116;10.818;2024-03-23T11:35:49;8.40;60.70
41985;DHT22;28319;48.116;10.818;2024-03-23T11:40:52;8.40;63.50
41985;DHT22;28319;48.116;10.818;2024-03-23T11:45:55;8.30;63.70
41985;DHT22;28319;48.116;10.818;2024-03-23T11:50:58;8.20;60.30
41985;DHT22;28319;48.116;10.818;2024-03-23T11:56:00;8.30;60.20
41985;DHT22;28319;48.116;10.818;2024-03-23T12:01:04;8.30;56.70
41985;DHT22;28319;48.116;10.818;2024-03-23T12:06:06;8.10;51.00
41985;DHT22;28319;48.116;10.818;2024-03-23T12:11:09;8.20;55.80
41985;DHT22;28319;48.116;10.818;2024-03-23T12:16:14;8.50;56.70
41985;DHT22;28319;48.116;10.818;2024-03-23T12:21:17;8.30;57.60
41985;DHT22;28319;48.116;10.818;2024-03-23T12:26:19;8.50;59.70
41985;DHT22;28319;48.116;10.818;2024-03-23T12:31:22;8.40;57.40
41985;DHT22;28319;48.116;10.818;2024-03-23T12:36:25;8.60;58.60
41985;DHT22;28319;48.116;10.818;2024-03-23T12:41:27;8.60;58.30
41985;DHT22;28319;48.116;10.818;2024-03-23T12:46:30;8.60;58.20
41985;DHT22;28319;48.116;10.818;2024-03-23T12:51:32;8.80;58.00
41985;DHT22;28319;48.116;10.818;2024-03-23T12:56:34;8.60;56.30
41985;DHT22;28319;48.116;10.818;2024-03-23T13:01:37;8.70;57.20
41985;DHT22;28319;48.116;10.818;2024-03-23T13:06:39;8.60;52.00
41985;DHT22;28319;48.116;10.818;2024-03-23T13:11:41;8.50;52.90
41985;DHT22;28319;48.116;10.818;2024-03-23T13:16:45;8.50;52.10
41985;DHT22;28319;48.116;10.818;2024-03-23T13:21:47;8.30;52.50
41985;DHT22;28319;48.116;10.818;2024-03-23T13:26:50;8.10;55.10
41985;DHT22;28319;48.116;10.818;2024-03-23T13:31:54;7.80;57.20
41985;DHT22;28319;48.116;10.818;2024-03-23T13:36:56;7.30;55.60
41985;DHT22;28319;48.116;10.818;2024-03-23T13:41:59;7.20;56.10
41985;DHT22;28319;48.116;10.818;2024-03-23T13:47:03;7.10;55.70
41985;DHT22;28319;48.116;10.818;2024-03-23T13:52:05;7.10;56.20
41985;DHT22;28319;48.116;10.818;2024-03-23T13:57:08;7.10;54.80
41985;DHT22;28319;48.116;10.818;2024-03-23T14:02:12;7.10;55.70
41985;DHT22;28319;48.116;10.818;2024-03-23T14:07:15;7.10;56.30
41985;DHT22;28319;48.116;10.818;2024-03-23T14:12:19;6.90;55.30
41985;DHT22;28319;48.116;10.818;2024-03-23T14:17:24;6.80;56.70
41985;DHT22;28319;48.116;10.818;2024-03-23T14:22:28;6.60;59.00
41985;DHT22;28319;48.116;10.818;2024-03-23T14:27:30;6.60;60.20
41985;DHT22;28319;48.116;10.818;2024-03-23T14:32:34;6.50;59.40
41985;DHT22;28319;48.116;10.818;2024-03-23T14:37:36;6.70;59.20
41985;DHT22;28319;48.116;10.818;2024-03-23T14:42:38;6.80;58.70
41985;DHT22;28319;48.116;10.818;2024-03-23T14:47:43;7.20;58.20
41985;DHT22;28319;48.116;10.818;2024-03-23T14:52:45;7.30;58.00
41985;DHT22;28319;48.116;10.818;2024-03-23T14:57:48;7.60;59.00
41985;DHT22;28319;48.116;10.818;2024-03-23T15:02:52;7.70;56.70
41985;DHT22;28319;48.116;10.818;2024-03-23T15:07:54;8.10;56.10
41985;DHT22;28319;48.116;10.818;2024-03-23T15:12:56;8.40;56.30
41985;DHT22;28319;48.116;10.818;2024-03-23T15:18:00;8.60;55.90
41985;DHT22;28319;48.116;10.818;2024-03-23T15:23:02;8.10;54.60
41985;DHT22;28319;48.116;10.818;2024-03-23T15:28:05;8.00;56.20
41985;DHT22;28319;48.116;10.818;2024-03-23T15:33:08;7.90;56.50
41985;DHT22;28319;48.116;10.818;2024-03-23T15:38:10;7.70;56.60
41985;DHT22;28319;48.116;10.818;2024-03-23T15:43:12;7.70;57.70
41985;DHT22;28319;48.116;10.818;2024-03-23T15:48:16;7.80;56.80
41985;DHT22;28319;48.116;10.818;2024-03-23T15:53:18;7.60;55.30
41985;DHT22;28319;48.116;10.818;2024-03-23T15:58:22;7.70;57.30
41985;DHT22;28319;48.116;10.818;2024-03-23T16:03:26;7.70;55.10
41985;DHT22;28319;48.116;10.818;2024-03-23T16:08:28;7.80;54.70
41985;DHT22;28319;48.116;10.818;2024-03-23T16:13:31;8.00;55.10
41985;DHT22;28319;48.116;10.818;2024-03-23T16:18:36;7.90;54.20
41985;DHT22;28319;48.116;10.818;2024-03-23T16:23:41;7.90;54.50
41985;DHT22;28319;48.116;10.818;2024-03-23T16:28:45;8.10;55.40
41985;DHT22;28319;48.116;10.818;2024-03-23T16:33:50;7.60;54.40
41985;DHT22;28319;48.116;10.818;2024-03-23T16:38:54;7.00;56.00
41985;DHT22;28319;48.116;10.818;2024-03-23T16:43:56;6.60;60.00
41985;DHT22;28319;48.116;10.818;2024-03-23T16:48:59;6.20;65.30
41985;DHT22;28319;48.116;10.818;2024-03-23T16:54:01;5.00;69.80
41985;DHT22;28319;48.116;10.818;2024-03-23T16:59:03;5.10;69.10
41985;DHT22;28319;48.116;10.818;2024-03-23T17:04:07;5.10;69.90
41985;DHT22;28319;48.116;10.818;2024-03-23T17:09:09;5.50;68.80
41985;DHT22;28319;48.116;10.818;2024-03-23T17:14:12;5.70;67.60
41985;DHT22;28319;48.116;10.818;2024-03-23T17:19:17;5.40;67.90
41985;DHT22;28319;48.116;10.818;2024-03-23T17:24:19;5.30;68.20
41985;DHT22;28319;48.116;10.818;2024-03-23T17:29:21;5.20;69.80
41985;DHT22;28319;48.116;10.818;2024-03-23T17:34:25;5.10;70.70
41985;DHT22;28319;48.116;10.818;2024-03-23T17:39:30;5.00;72.20
41985;DHT22;28319;48.116;10.818;2024-03-23T17:44:33;4.80;74.30
41985;DHT22;28319;48.116;10.818;2024-03-23T17:49:36;4.80;74.70
41985;DHT22;28319;48.116;10.818;2024-03-23T17:54:38;4.70;74.00
41985;DHT22;28319;48.116;10.818;2024-03-23T17:59:40;4.70;74.60
41985;DHT22;28319;48.116;10.818;2024-03-23T18:04:44;4.50;77.00
41985;DHT22;28319;48.116;10.818;2024-03-23T18:09:46;4.40;77.50
41985;DHT22;28319;48.116;10.818;2024-03-23T18:14:48;4.50;77.80
41985;DHT22;28319;48.116;10.818;2024-03-23T18:19:51;4.50;76.00
41985;DHT22;28319;48.116;10.818;2024-03-23T18:24:53;4.50;76.10
41985;DHT22;28319;48.116;10.818;2024-03-23T18:29:55;4.60;75.90
41985;DHT22;28319;48.116;10.818;2024-03-23T18:34:58;4.70;74.70
41985;DHT22;28319;48.116;10.818;2024-03-23T18:40:00;4.50;74.80
41985;DHT22;28319;48.116;10.818;2024-03-23T18:45:02;4.60;76.00
41985;DHT22;28319;48.116;10.818;2024-03-23T18:50:06;4.50;74.70
41985;DHT22;28319;48.116;10.818;2024-03-23T18:55:09;4.50;74.30
41985;DHT22;28319;48.116;10.818;2024-03-23T19:00:12;4.40;74.40
41985;DHT22;28319;48.116;10.818;2024-03-23T19:05:15;4.40;73.90
41985;DHT22;28319;48.116;10.818;2024-03-23T19:10:18;4.40;73.40
41985;DHT22;28319;48.116;10.818;2024-03-23T19:15:21;4.50;73.10
41985;DHT22;28319;48.116;10.818;2024-03-23T19:20:25;4.60;73.10
41985;DHT22;28319;48.116;10.818;2024-03-23T19:25:27;4.50;72.00
41985;DHT22;28319;48.116;10.818;2024-03-23T19:30:29;4.40;70.00
41985;DHT22;28319;48.116;10.818;2024-03-23T19:35:32;4.40;67.50
41985;DHT22;28319;48.116;10.818;2024-03-23T19:40:34;4.40;69.50
41985;DHT22;28319;48.116;10.818;2024-03-23T19:45:36;4.50;71.80
41985;DHT22;28319;48.116;10.818;2024-03-23T19:50:40;4.30;74.10
41985;DHT22;28319;48.116;10.818;2024-03-23T19:55:42;4.30;74.60
41985;DHT22;28319;48.116;10.818;2024-03-23T20:00:44;4.20;74.60
41985;DHT22;28319;48.116;10.818;2024-03-23T20:05:56;4.30;74.40
41985;DHT22;28319;48.116;10.818;2024-03-23T20:10:58;4.30;73.40
41985;DHT22;28319;48.116;10.818;2024-03-23T20:16:02;4.40;71.60
41985;DHT22;28319;48.116;10.818;2024-03-23T20:21:08;4.40;71.10
41985;DHT22;28319;48.116;10.818;2024-03-23T20:26:10;4.30;70.60
41985;DHT22;28319;48.116;10.818;2024-03-23T20:31:12;4.40;72.20
41985;DHT22;28319;48.116;10.818;2024-03-23T20:36:18;4.80;72.30
41985;DHT22;28319;48.116;10.818;2024-03-23T20:41:20;4.40;72.10
41985;DHT22;28319;48.116;10.818;2024-03-23T20:46:24;4.40;72.20
41985;DHT22;28319;48.116;10.818;2024-03-23T20:51:27;4.40;73.30
41985;DHT22;28319;48.116;10.818;2024-03-23T20:56:30;4.20;73.90
41985;DHT22;28319;48.116;10.818;2024-03-23T21:01:32;4.60;73.80
41985;DHT22;28319;48.116;10.818;2024-03-23T21:06:35;4.10;74.80
41985;DHT22;28319;48.116;10.818;2024-03-23T21:11:39;4.10;75.30
41985;DHT22;28319;48.116;10.818;2024-03-23T21:16:41;4.00;75.10
41985;DHT22;28319;48.116;10.818;2024-03-23T21:21:44;3.90;75.20
41985;DHT22;28319;48.116;10.818;2024-03-23T21:26:47;3.80;74.40
41985;DHT22;28319;48.116;10.818;2024-03-23T21:31:50;3.80;74.60
41985;DHT22;28319;48.116;10.818;2024-03-23T21:36:53;3.70;74.30
41985;DHT22;28319;48.116;10.818;2024-03-23T21:41:56;3.70;74.20
41985;DHT22;28319;48.116;10.818;2024-03-23T21:46:58;3.70;74.50
41985;DHT22;28319;48.116;10.818;2024-03-23T21:52:01;3.60;74.60
41985;DHT22;28319;48.116;10.818;2024-03-23T21:57:04;3.60;74.40
41985;DHT22;28319;48.116;10.818;2024-03-23T22:02:06;3.50;74.80
41985;DHT22;28319;48.116;10.818;2024-03-23T22:07:10;3.60;74.70
41985;DHT22;28319;48.116;10.818;2024-03-23T22:12:12;3.60;75.10
41985;DHT22;28319;48.116;10.818;2024-03-23T22:17:14;3.70;75.50
41985;DHT22;28319;48.116;10.818;2024-03-23T22:22:17;3.70;76.10
41985;DHT22;28319;48.116;10.818;2024-03-23T22:27:19;3.50;77.00
41985;DHT22;28319;48.116;10.818;2024-03-23T22:32:23;3.60;76.90
41985;DHT22;28319;48.116;10.818;2024-03-23T22:37:26;3.60;76.90
41985;DHT22;28319;48.116;10.818;2024-03-23T22:42:28;3.60;76.70
41985;DHT22;28319;48.116;10.818;2024-03-23T22:47:30;3.50;76.70
41985;DHT22;28319;48.116;10.818;2024-03-23T22:52:34;3.60;76.80
41985;DHT22;28319;48.116;10.818;2024-03-23T22:57:36;3.60;76.50
41985;DHT22;28319;48.116;10.818;2024-03-23T23:02:37;3.60;76.50
41985;DHT22;28319;48.116;10.818;2024-03-23T23:07:41;3.60;76.40
41985;DHT22;28319;48.116;10.818;2024-03-23T23:12:43;3.60;76.80
41985;DHT22;28319;48.116;10.818;2024-03-23T23:17:45;3.70;76.00
41985;DHT22;28319;48.116;10.818;2024-03-23T23:22:52;3.60;76.10
41985;DHT22;28319;48.116;10.818;2024-03-23T23:27:54;3.70;76.60
41985;DHT22;28319;48.116;10.818;2024-03-23T23:32:56;3.70;77.00
41985;DHT22;28319;48.116;10.818;2024-03-23T23:38:00;3.70;77.50
41985;DHT22;28319;48.116;10.818;2024-03-23T23:43:02;3.70;77.90
41985;DHT22;28319;48.116;10.818;2024-03-23T23:48:05;3.60;78.00
41985;DHT22;28319;48.116;10.818;2024-03-23T23:53:08;3.80;77.80
41985;DHT22;28319;48.116;10.818;2024-03-23T23:58:10;3.70;78.00
